Time;durP1;ratioP1;P1;durP2;ratioP2;P2;SDS_P1;SDS_P2;PMS_P1;PMS_P2;Temp;Humidity;BMP_temperature;BMP_pressure;BME280_temperature;BME280_humidity;BME280_pressure;Samples;Min_cycle;Max_cycle;Signal;HPM_P1;HPM_P2
2022/12/05 00:02:09;;;;;;;42.13;17.27;;;6.40;99.90;;;;;;5031861;28;20029;-63
2022/12/05 00:04:35;;;;;;;44.65;17.40;;;6.40;99.90;;;;;;5031565;28;20032;-63
2022/12/05 00:07:00;;;;;;;48.83;19.10;;;6.40;99.90;;;;;;5031325;28;20021;-63
2022/12/05 00:09:26;;;;;;;51.80;19.48;;;6.40;99.90;;;;;;5031480;28;20040;-64
2022/12/05 00:11:52;;;;;;;43.10;18.52;;;6.40;99.90;;;;;;5032048;28;20619;-63
2022/12/05 00:14:17;;;;;;;49.55;18.98;;;6.40;99.90;;;;;;5031319;28;20472;-63
2022/12/05 00:16:44;;;;;;;48.97;18.50;;;6.40;99.90;;;;;;5031308;28;20111;-62
2022/12/05 00:19:13;;;;;;;47.75;18.67;;;6.40;99.90;;;;;;5049809;28;20103;-63
2022/12/05 00:21:39;;;;;;;47.58;19.00;;;6.40;99.90;;;;;;5051378;28;20048;-63
2022/12/05 00:24:06;;;;;;;51.33;19.80;;;6.40;99.90;;;;;;5051433;28;20588;-64
2022/12/05 00:26:33;;;;;;;52.90;17.95;;;6.40;99.90;;;;;;5051222;28;20021;-64
2022/12/05 00:28:58;;;;;;;50.63;18.27;;;6.40;99.90;;;;;;5045752;28;20106;-64
2022/12/05 00:31:26;;;;;;;46.17;17.75;;;6.40;99.90;;;;;;5031243;28;20108;-63
2022/12/05 00:33:53;;;;;;;49.20;17.75;;;6.40;99.90;;;;;;5030706;28;20025;-64
2022/12/05 00:36:22;;;;;;;51.03;19.75;;;6.40;99.90;;;;;;5040502;28;20112;-63
2022/12/05 00:38:49;;;;;;;53.47;17.25;;;6.40;99.90;;;;;;5039443;28;20025;-63
2022/12/05 00:41:18;;;;;;;55.78;19.73;;;6.40;99.90;;;;;;5050904;28;20057;-64
2022/12/05 00:43:44;;;;;;;52.08;18.42;;;6.30;99.90;;;;;;5038014;28;20590;-63
2022/12/05 00:46:25;;;;;;;47.90;18.42;;;6.30;99.90;;;;;;5030670;28;20025;-63
2022/12/05 00:48:55;;;;;;;48.80;17.83;;;6.30;99.90;;;;;;5030701;28;20048;-65
2022/12/05 00:51:29;;;;;;;50.70;18.42;;;6.30;99.90;;;;;;5034610;28;20473;-64
2022/12/05 00:53:58;;;;;;;50.65;18.08;;;6.40;99.90;;;;;;5051076;28;20032;-64
2022/12/05 00:56:25;;;;;;;48.85;17.88;;;6.30;99.90;;;;;;5040838;28;20083;-63
2022/12/05 00:58:52;;;;;;;58.70;20.17;;;6.30;99.90;;;;;;5038167;28;20508;-64
2022/12/05 01:01:21;;;;;;;63.08;19.70;;;6.30;99.90;;;;;;5037640;28;20048;-64
2022/12/05 01:03:51;;;;;;;53.30;18.33;;;6.30;99.90;;;;;;5054091;28;20432;-64
2022/12/05 01:06:16;;;;;;;54.28;18.60;;;6.30;99.90;;;;;;5054799;28;20025;-63
2022/12/05 01:08:42;;;;;;;56.65;18.95;;;6.40;99.90;;;;;;5047822;28;20041;-63
2022/12/05 01:11:09;;;;;;;63.15;19.05;;;6.40;1.00;;;;;;5035131;28;20021;-64
2022/12/05 01:13:35;;;;;;;53.58;18.48;;;6.40;1.00;;;;;;5035006;28;20025;-62
2022/12/05 01:16:02;;;;;;;61.22;19.38;;;6.40;1.00;;;;;;5034759;28;20041;-64
2022/12/05 01:18:28;;;;;;;61.30;20.08;;;6.40;1.00;;;;;;5047602;28;20122;-63
2022/12/05 01:20:54;;;;;;;60.03;19.40;;;6.40;1.00;;;;;;5041265;28;20072;-62
2022/12/05 01:23:21;;;;;;;59.22;18.90;;;6.40;1.00;;;;;;5035007;28;20026;-64
2022/12/05 01:25:49;;;;;;;53.40;17.83;;;6.40;1.00;;;;;;5041667;28;20470;-64
2022/12/05 01:28:16;;;;;;;58.63;19.25;;;6.40;1.00;;;;;;5054221;28;20096;-63
2022/12/05 01:30:44;;;;;;;52.88;19.55;;;6.40;1.00;;;;;;5054384;28;20488;-64
2022/12/05 01:33:11;;;;;;;56.72;19.65;;;6.40;1.00;;;;;;5054490;28;20033;-65
2022/12/05 01:35:39;;;;;;;52.20;18.00;;;6.40;1.00;;;;;;5054367;28;20017;-64
2022/12/05 01:38:05;;;;;;;59.83;19.95;;;6.40;1.00;;;;;;5053101;28;20036;-63
2022/12/05 01:40:32;;;;;;;53.50;18.70;;;6.50;1.00;;;;;;5054081;28;20493;-63
2022/12/05 01:42:58;;;;;;;59.60;17.23;;;6.50;1.00;;;;;;5045156;28;20042;-64
2022/12/05 01:45:30;;;;;;;53.28;19.85;;;6.50;1.00;;;;;;5047534;28;20025;-64
2022/12/05 01:47:56;;;;;;;54.55;16.75;;;6.50;1.00;;;;;;5053952;28;20025;-63
2022/12/05 01:50:21;;;;;;;51.78;17.13;;;6.50;1.00;;;;;;5046682;28;20026;-64
2022/12/05 01:52:47;;;;;;;59.08;19.30;;;6.50;1.00;;;;;;5042678;28;20019;-64
2022/12/05 01:55:16;;;;;;;61.65;18.85;;;6.50;1.00;;;;;;5038274;28;20631;-63
2022/12/05 01:57:43;;;;;;;60.38;18.63;;;6.50;1.00;;;;;;5048118;28;20428;-63
2022/12/05 02:00:13;;;;;;;59.97;19.42;;;6.50;1.00;;;;;;5043372;28;20109;-62
2022/12/05 02:02:42;;;;;;;63.55;19.83;;;6.50;1.00;;;;;;5033906;28;20382;-63
2022/12/05 02:05:23;;;;;;;59.17;17.77;;;6.50;1.00;;;;;;5033695;28;20021;-63
2022/12/05 02:07:50;;;;;;;64.13;17.83;;;6.50;1.00;;;;;;5033807;28;20583;-64
2022/12/05 02:10:16;;;;;;;56.80;19.13;;;6.50;1.00;;;;;;5049260;28;20405;-64
2022/12/05 02:12:43;;;;;;;56.78;18.67;;;6.60;1.00;;;;;;5053740;28;20060;-62
2022/12/05 02:15:32;;;;;;;54.28;18.38;;;6.50;1.00;;;;;;5053548;28;20033;-65
2022/12/05 02:18:34;;;;;;;58.03;19.05;;;6.60;1.00;;;;;;5033898;28;20517;-65
2022/12/05 02:21:06;;;;;;;67.40;19.58;;;6.50;1.00;;;;;;5033683;28;20075;-62
2022/12/05 02:23:49;;;;;;;69.47;19.60;;;6.50;1.00;;;;;;5033447;28;20022;-64
2022/12/05 02:26:53;;;;;;;67.68;19.30;;;6.50;1.00;;;;;;5033527;28;20038;-63
2022/12/05 02:29:18;;;;;;;62.83;18.88;;;6.60;1.00;;;;;;5033878;28;20037;-63
2022/12/05 02:32:05;;;;;;;68.45;19.65;;;6.50;1.00;;;;;;5033374;28;20455;-64
2022/12/05 02:34:52;;;;;;;65.57;19.33;;;6.60;4.20;;;;;;5036687;28;20039;-63
2022/12/05 02:37:59;;;;;;;72.05;20.88;;;6.50;4.20;;;;;;5042134;28;20110;-64
2022/12/05 02:40:38;;;;;;;65.95;19.52;;;6.60;14.60;;;;;;5053398;28;20021;-64
2022/12/05 02:43:22;;;;;;;65.25;20.27;;;6.60;15.40;;;;;;5053256;28;20069;-64
2022/12/05 02:45:53;;;;;;;75.50;21.42;;;6.60;27.80;;;;;;5048146;28;20013;-64
2022/12/05 02:48:20;;;;;;;74.70;20.60;;;6.60;42.60;;;;;;5052966;28;20040;-65
2022/12/05 02:50:47;;;;;;;76.60;20.05;;;6.60;44.10;;;;;;5053019;28;20377;-64
2022/12/05 02:53:15;;;;;;;62.47;19.27;;;6.70;55.40;;;;;;5053358;28;20028;-66
2022/12/05 02:55:43;;;;;;;60.70;22.45;;;6.70;65.30;;;;;;5051554;28;20535;-63
2022/12/05 02:58:15;;;;;;;74.50;21.48;;;6.70;81.20;;;;;;5050940;28;20120;-66
2022/12/05 03:00:44;;;;;;;74.57;21.48;;;6.70;78.50;;;;;;5052619;28;20123;-64
2022/12/05 03:03:20;;;;;;;73.40;21.73;;;6.70;79.00;;;;;;5037547;28;20175;-64
2022/12/05 03:06:02;;;;;;;77.82;21.42;;;6.70;88.80;;;;;;5032770;28;20056;-64
2022/12/05 03:08:43;;;;;;;74.57;21.80;;;6.70;94.00;;;;;;5032523;28;20394;-65
2022/12/05 03:11:09;;;;;;;71.43;21.02;;;6.70;99.90;;;;;;5032704;28;20025;-64
2022/12/05 03:13:44;;;;;;;76.45;21.45;;;6.70;99.90;;;;;;5032436;28;20080;-63
2022/12/05 03:16:28;;;;;;;65.40;21.30;;;6.70;99.90;;;;;;5042622;28;20124;-63
2022/12/05 03:19:26;;;;;;;84.07;21.33;;;6.70;99.90;;;;;;5036473;28;20087;-64
2022/12/05 03:22:02;;;;;;;74.47;22.33;;;6.70;99.90;;;;;;5038346;28;20064;-64
2022/12/05 03:24:30;;;;;;;70.82;20.33;;;6.70;99.90;;;;;;5041936;28;20647;-64
2022/12/05 03:27:07;;;;;;;76.65;20.33;;;6.70;99.90;;;;;;5052500;28;20025;-64
2022/12/05 03:29:54;;;;;;;73.18;20.90;;;6.80;99.90;;;;;;5052306;28;20118;-64
2022/12/05 03:32:29;;;;;;;74.25;22.30;;;6.80;99.90;;;;;;5049418;28;20417;-63
2022/12/05 03:35:19;;;;;;;78.97;21.55;;;6.80;99.90;;;;;;5043048;28;20021;-63
2022/12/05 03:38:09;;;;;;;75.43;20.23;;;6.70;99.90;;;;;;5032376;28;20356;-64
2022/12/05 03:40:45;;;;;;;77.30;20.90;;;6.80;99.90;;;;;;5050224;28;20623;-64
2022/12/05 03:43:31;;;;;;;78.32;21.92;;;6.80;99.90;;;;;;5051930;28;20143;-65
2022/12/05 03:46:03;;;;;;;72.90;21.52;;;6.80;99.90;;;;;;5051861;28;20048;-64
2022/12/05 03:48:54;;;;;;;80.82;21.58;;;6.80;99.90;;;;;;5051382;28;20094;-63
2022/12/05 03:51:24;;;;;;;76.63;21.35;;;6.80;99.90;;;;;;5051956;28;20021;-63
2022/12/05 03:53:56;;;;;;;85.95;21.25;;;6.80;99.90;;;;;;5037762;28;20116;-65
2022/12/05 03:56:28;;;;;;;81.35;22.50;;;6.90;99.90;;;;;;5051074;28;20117;-64
2022/12/05 03:59:21;;;;;;;84.43;22.10;;;6.90;99.90;;;;;;5041406;28;20509;-63
2022/12/05 04:01:49;;;;;;;80.15;23.67;;;6.90;99.90;;;;;;5033426;28;20033;-65
2022/12/05 04:04:23;;;;;;;73.20;22.27;;;6.90;99.90;;;;;;5042909;28;20086;-64
2022/12/05 04:06:50;;;;;;;81.00;23.65;;;6.90;99.90;;;;;;5051123;28;20100;-64
2022/12/05 04:09:31;;;;;;;80.85;23.40;;;6.90;99.90;;;;;;5051450;28;20041;-64
2022/12/05 04:12:01;;;;;;;74.57;23.00;;;7.00;99.90;;;;;;5051496;28;20017;-63
2022/12/05 04:14:37;;;;;;;81.18;21.85;;;6.90;99.90;;;;;;5051583;28;20036;-64
2022/12/05 04:17:19;;;;;;;75.85;23.08;;;7.00;99.90;;;;;;5051599;28;20084;-63
2022/12/05 04:22:42;;;;;;;83.07;22.02;;;7.00;99.90;;;;;;5051603;28;20051;-63
2022/12/05 04:27:58;;;;;;;77.97;22.15;;;7.00;99.90;;;;;;5051303;28;20428;-64
2022/12/05 04:30:39;;;;;;;74.35;20.85;;;7.00;99.90;;;;;;5051227;28;20056;-64
2022/12/05 04:33:15;;;;;;;87.75;23.85;;;7.00;99.90;;;;;;5049160;28;20028;-63
2022/12/05 04:36:05;;;;;;;86.28;23.25;;;7.00;99.90;;;;;;5051173;28;20028;-65
2022/12/05 04:38:49;;;;;;;83.13;24.58;;;7.00;99.90;;;;;;5051172;28;20021;-64
2022/12/05 04:41:32;;;;;;;84.97;24.58;;;7.00;99.90;;;;;;5050928;28;20025;-64
2022/12/05 04:44:02;;;;;;;80.90;22.58;;;7.00;99.90;;;;;;5046507;28;20025;-65
2022/12/05 04:46:28;;;;;;;94.10;24.50;;;7.10;99.90;;;;;;5034614;28;20151;-63
2022/12/05 04:48:59;;;;;;;76.43;23.35;;;7.10;99.90;;;;;;5030646;28;20120;-65
2022/12/05 04:51:30;;;;;;;94.05;24.77;;;7.10;99.90;;;;;;5031168;28;20017;-64
2022/12/05 04:54:01;;;;;;;80.43;23.48;;;7.10;99.90;;;;;;5031062;28;20556;-63
2022/12/05 04:56:32;;;;;;;78.63;23.50;;;7.10;99.90;;;;;;5031235;28;20029;-63
2022/12/05 04:58:58;;;;;;;87.97;22.90;;;7.10;99.90;;;;;;5031112;28;20025;-64
2022/12/05 05:01:32;;;;;;;83.63;23.75;;;7.10;99.90;;;;;;5031033;28;20032;-64
2022/12/05 05:04:12;;;;;;;79.43;23.15;;;7.10;99.90;;;;;;5030946;28;20029;-64
2022/12/05 05:06:39;;;;;;;76.35;23.17;;;7.10;99.90;;;;;;5031014;28;20033;-64
2022/12/05 05:09:05;;;;;;;82.15;23.15;;;7.10;99.90;;;;;;5031039;28;20066;-63
2022/12/05 05:11:33;;;;;;;76.80;22.23;;;7.10;99.90;;;;;;5030606;28;20509;-62
2022/12/05 05:13:59;;;;;;;84.75;24.67;;;7.20;99.90;;;;;;5030749;28;20041;-64
2022/12/05 05:16:27;;;;;;;81.13;23.75;;;7.20;99.90;;;;;;5030628;28;20049;-63
2022/12/05 05:18:53;;;;;;;84.30;23.67;;;7.20;99.90;;;;;;5030818;28;20076;-63
2022/12/05 05:21:26;;;;;;;86.00;23.95;;;7.20;99.90;;;;;;5030836;28;20034;-64
2022/12/05 05:23:52;;;;;;;83.80;22.42;;;7.20;99.90;;;;;;5030861;28;20029;-64
2022/12/05 05:26:18;;;;;;;74.72;23.83;;;7.20;99.90;;;;;;5034479;28;20029;-63
2022/12/05 05:28:45;;;;;;;79.53;23.98;;;7.20;99.90;;;;;;5047510;28;20385;-63
2022/12/05 05:31:12;;;;;;;80.40;23.63;;;7.20;99.90;;;;;;5050503;28;20445;-63
2022/12/05 05:33:38;;;;;;;75.13;25.27;;;7.20;99.90;;;;;;5050407;28;20037;-63
2022/12/05 05:36:05;;;;;;;77.97;23.67;;;7.20;99.90;;;;;;5042898;28;20026;-63
2022/12/05 05:38:35;;;;;;;79.65;23.60;;;7.20;99.90;;;;;;5044531;28;20508;-63
2022/12/05 05:41:01;;;;;;;80.47;24.25;;;7.20;99.90;;;;;;5030827;28;20022;-63
2022/12/05 05:43:27;;;;;;;81.78;23.88;;;7.20;99.90;;;;;;5030200;28;20053;-63
2022/12/05 05:45:53;;;;;;;72.43;23.20;;;7.20;99.90;;;;;;5040907;28;20079;-64
2022/12/05 05:48:18;;;;;;;74.75;23.80;;;7.30;99.90;;;;;;5054271;28;20495;-64
2022/12/05 05:50:44;;;;;;;74.68;24.95;;;7.30;99.90;;;;;;5054266;28;20033;-64
2022/12/05 05:53:10;;;;;;;71.20;23.95;;;7.30;99.90;;;;;;5054362;28;20098;-63
2022/12/05 05:55:39;;;;;;;77.13;24.15;;;7.30;99.90;;;;;;5053965;28;20025;-64
2022/12/05 05:58:05;;;;;;;76.75;24.25;;;7.30;99.90;;;;;;5053916;28;20025;-63
2022/12/05 06:00:31;;;;;;;79.85;23.98;;;7.30;99.90;;;;;;5054132;28;20032;-64
2022/12/05 06:02:56;;;;;;;67.30;23.73;;;7.30;99.90;;;;;;5053063;28;20025;-62
2022/12/05 06:05:22;;;;;;;67.57;23.90;;;7.30;99.90;;;;;;5052942;28;20060;-62
2022/12/05 06:07:48;;;;;;;73.53;23.42;;;7.30;99.90;;;;;;5053583;28;20063;-62
2022/12/05 06:10:13;;;;;;;75.53;23.33;;;7.30;99.90;;;;;;5053543;28;20107;-62
2022/12/05 06:12:39;;;;;;;66.90;23.98;;;7.30;99.90;;;;;;5053166;28;20147;-62
2022/12/05 06:15:06;;;;;;;70.28;23.48;;;7.40;99.90;;;;;;5052850;28;20583;-62
2022/12/05 06:17:31;;;;;;;73.05;24.33;;;7.40;99.90;;;;;;5053674;28;20056;-63
2022/12/05 06:19:57;;;;;;;74.18;24.13;;;7.40;99.90;;;;;;5053401;28;20507;-63
2022/12/05 06:22:23;;;;;;;74.07;23.02;;;7.40;99.90;;;;;;5052078;28;20373;-61
2022/12/05 06:24:48;;;;;;;70.47;24.85;;;7.40;99.90;;;;;;5050098;28;20057;-62
2022/12/05 06:27:14;;;;;;;71.30;22.70;;;7.40;99.90;;;;;;5053054;28;20029;-63
2022/12/05 06:29:40;;;;;;;67.90;23.33;;;7.40;99.90;;;;;;5053141;28;20036;-62
2022/12/05 06:32:06;;;;;;;58.83;22.75;;;7.40;99.90;;;;;;5053337;28;20072;-63
2022/12/05 06:34:31;;;;;;;71.53;23.65;;;7.40;99.90;;;;;;5041684;28;20030;-62
2022/12/05 06:36:58;;;;;;;68.50;22.60;;;7.40;99.90;;;;;;5033411;28;20454;-62
2022/12/05 06:39:24;;;;;;;62.55;22.75;;;7.50;99.90;;;;;;5033213;28;20545;-63
2022/12/05 06:41:50;;;;;;;70.60;22.50;;;7.50;99.90;;;;;;5033005;28;20113;-63
2022/12/05 06:44:15;;;;;;;69.13;22.20;;;7.50;99.90;;;;;;5040754;28;20124;-62
2022/12/05 06:46:41;;;;;;;63.92;22.92;;;7.50;99.90;;;;;;5052539;28;20025;-62
2022/12/05 06:49:12;;;;;;;64.90;22.35;;;7.50;99.90;;;;;;5053115;28;20366;-63
2022/12/05 06:51:37;;;;;;;59.33;22.13;;;7.50;99.90;;;;;;5052868;28;20071;-62
2022/12/05 06:54:03;;;;;;;65.78;22.98;;;7.50;99.90;;;;;;5053304;28;20028;-63
2022/12/05 06:56:29;;;;;;;65.80;22.15;;;7.50;99.90;;;;;;5052039;28;20024;-62
2022/12/05 06:58:55;;;;;;;54.28;21.60;;;7.50;99.90;;;;;;5052889;28;20044;-63
2022/12/05 07:01:37;;;;;;;61.25;22.00;;;7.50;99.90;;;;;;5052913;28;20021;-63
2022/12/05 07:04:23;;;;;;;63.15;23.73;;;7.50;99.90;;;;;;5052844;28;20053;-63
2022/12/05 07:06:51;;;;;;;65.78;22.00;;;7.50;99.90;;;;;;5052566;28;20581;-63
2022/12/05 07:09:44;;;;;;;63.17;22.48;;;7.60;99.90;;;;;;5052683;28;20053;-64
2022/12/05 07:12:08;;;;;;;60.30;22.58;;;7.60;99.90;;;;;;5051915;28;20493;-62
2022/12/05 07:14:34;;;;;;;56.03;20.50;;;7.60;99.90;;;;;;5051869;28;20029;-63
2022/12/05 07:16:59;;;;;;;59.95;23.20;;;7.60;99.90;;;;;;5052350;28;20116;-63
2022/12/05 07:19:25;;;;;;;61.78;20.27;;;7.60;99.90;;;;;;5051953;28;20040;-66
2022/12/05 07:21:51;;;;;;;59.40;20.90;;;7.60;99.90;;;;;;5051692;28;20025;-64
2022/12/05 07:24:16;;;;;;;58.55;22.20;;;7.60;99.90;;;;;;5052330;28;20032;-64
2022/12/05 07:26:42;;;;;;;64.50;21.55;;;7.60;99.90;;;;;;5051233;28;20124;-63
2022/12/05 07:29:09;;;;;;;71.07;21.83;;;7.60;99.90;;;;;;5050310;28;20037;-63
2022/12/05 07:31:35;;;;;;;60.60;22.13;;;7.70;99.90;;;;;;5050203;28;20025;-63
2022/12/05 07:34:01;;;;;;;67.95;21.77;;;7.70;99.90;;;;;;5050302;28;20037;-63
2022/12/05 07:36:27;;;;;;;62.20;21.70;;;7.70;99.90;;;;;;5050500;28;20032;-64
2022/12/05 07:38:56;;;;;;;63.38;22.73;;;7.70;99.90;;;;;;5050660;28;20465;-63
2022/12/05 07:41:25;;;;;;;57.95;22.50;;;7.70;1.00;;;;;;5051264;28;20287;-63
2022/12/05 07:43:53;;;;;;;57.38;21.27;;;7.70;1.00;;;;;;5042157;28;20107;-62
2022/12/05 07:46:19;;;;;;;57.35;20.58;;;7.80;1.00;;;;;;5031814;28;20154;-62
2022/12/05 07:48:47;;;;;;;53.22;20.33;;;7.80;1.00;;;;;;5042010;28;20170;-62
2022/12/05 07:51:13;;;;;;;58.78;21.20;;;7.80;99.90;;;;;;5051214;28;20444;-63
2022/12/05 07:53:41;;;;;;;68.07;20.65;;;7.80;99.90;;;;;;5047377;28;20060;-63
2022/12/05 07:56:08;;;;;;;59.28;21.55;;;7.80;99.90;;;;;;5031928;28;20100;-63
2022/12/05 07:58:34;;;;;;;60.58;21.95;;;7.80;99.90;;;;;;5031624;28;20109;-63
2022/12/05 08:01:09;;;;;;;71.80;22.00;;;7.80;99.90;;;;;;5031750;28;20030;-63
2022/12/05 08:03:36;;;;;;;61.70;21.25;;;7.80;99.90;;;;;;5030459;28;20025;-63
2022/12/05 08:06:07;;;;;;;54.63;21.42;;;7.80;99.90;;;;;;5046738;28;20472;-63
2022/12/05 08:08:33;;;;;;;62.53;20.95;;;7.80;1.00;;;;;;5047219;28;20029;-62
2022/12/05 08:11:04;;;;;;;62.30;20.48;;;7.90;1.00;;;;;;5030227;28;20045;-64
2022/12/05 08:13:30;;;;;;;63.53;21.42;;;7.90;1.00;;;;;;5031298;28;20126;-63
2022/12/05 08:16:01;;;;;;;60.08;20.17;;;7.90;1.00;;;;;;5031119;28;20097;-63
2022/12/05 08:18:26;;;;;;;54.45;20.30;;;7.90;99.90;;;;;;5031211;28;20034;-62
2022/12/05 08:20:52;;;;;;;59.40;20.58;;;7.90;99.90;;;;;;5031472;28;20029;-64
2022/12/05 08:23:17;;;;;;;58.25;21.65;;;7.90;99.90;;;;;;5031425;28;20029;-62
2022/12/05 08:25:43;;;;;;;57.05;20.58;;;8.00;99.90;;;;;;5031336;28;20069;-64
2022/12/05 08:28:09;;;;;;;61.72;21.55;;;8.00;99.90;;;;;;5030952;28;20112;-63
2022/12/05 08:30:35;;;;;;;62.38;20.60;;;8.00;99.90;;;;;;5031382;28;20087;-64
2022/12/05 08:33:00;;;;;;;54.63;20.50;;;8.10;1.00;;;;;;5031539;28;20497;-62
2022/12/05 08:35:26;;;;;;;58.20;18.63;;;8.10;99.90;;;;;;5031342;28;20071;-63
2022/12/05 08:37:52;;;;;;;61.55;21.25;;;8.10;99.90;;;;;;5031173;28;20096;-63
2022/12/05 08:40:17;;;;;;;60.13;20.60;;;8.10;99.90;;;;;;5030867;28;20362;-64
2022/12/05 08:42:43;;;;;;;61.40;21.75;;;8.00;99.90;;;;;;5031303;28;20540;-63
2022/12/05 08:45:09;;;;;;;66.45;21.80;;;8.10;99.90;;;;;;5031126;28;20022;-63
2022/12/05 08:47:35;;;;;;;60.10;21.10;;;8.10;99.90;;;;;;5031084;28;20033;-64
2022/12/05 08:50:01;;;;;;;67.25;20.17;;;8.10;99.90;;;;;;5030878;28;20163;-64
2022/12/05 08:52:26;;;;;;;61.13;20.10;;;8.10;99.90;;;;;;5031182;28;20040;-62
2022/12/05 08:54:52;;;;;;;53.35;19.80;;;8.20;1.00;;;;;;5031160;28;20056;-63
2022/12/05 08:57:17;;;;;;;66.90;20.25;;;8.20;1.00;;;;;;5031184;28;20075;-63
2022/12/05 08:59:43;;;;;;;60.85;20.05;;;8.20;1.00;;;;;;5031230;28;20037;-62
2022/12/05 09:02:10;;;;;;;62.35;21.48;;;8.30;1.00;;;;;;5031196;28;20041;-63
2022/12/05 09:04:35;;;;;;;59.63;20.45;;;8.30;1.00;;;;;;5031004;28;20107;-63
2022/12/05 09:07:02;;;;;;;73.30;21.33;;;8.30;1.00;;;;;;5030836;28;20061;-62
2022/12/05 09:09:28;;;;;;;67.40;20.73;;;8.30;1.00;;;;;;5030926;28;20034;-62
2022/12/05 09:11:54;;;;;;;55.67;19.90;;;8.30;1.00;;;;;;5030737;28;20550;-63
2022/12/05 09:14:19;;;;;;;58.05;20.58;;;8.30;1.00;;;;;;5031156;28;20466;-63
2022/12/05 09:16:46;;;;;;;57.08;19.77;;;8.40;1.00;;;;;;5030847;28;20049;-64
2022/12/05 09:19:15;;;;;;;63.58;19.42;;;8.30;1.00;;;;;;5032900;28;20076;-63
2022/12/05 09:21:41;;;;;;;55.53;20.20;;;8.40;1.00;;;;;;5034850;28;20359;-63
2022/12/05 09:24:09;;;;;;;57.17;18.83;;;8.40;1.00;;;;;;5034582;28;20026;-63
2022/12/05 09:26:35;;;;;;;59.20;19.98;;;8.50;1.00;;;;;;5034810;28;20126;-63
2022/12/05 09:29:02;;;;;;;64.63;22.08;;;8.50;1.00;;;;;;5034623;28;20034;-64
2022/12/05 09:31:29;;;;;;;62.03;20.70;;;8.50;1.00;;;;;;5033428;28;20032;-64
2022/12/05 09:33:55;;;;;;;57.58;20.25;;;8.50;1.00;;;;;;5034774;28;20116;-63
2022/12/05 09:36:24;;;;;;;63.72;21.45;;;8.50;1.00;;;;;;5034321;28;20479;-64
2022/12/05 09:38:50;;;;;;;59.63;22.52;;;8.50;1.00;;;;;;5034119;28;20103;-63
2022/12/05 09:44:56;;;;;;;57.67;19.90;;;8.60;1.00;;;;;;5034494;28;20115;-63
2022/12/05 09:47:35;;;;;;;60.08;20.80;;;8.60;1.00;;;;;;5034345;28;20030;-64
2022/12/05 09:50:13;;;;;;;57.55;20.92;;;8.60;1.00;;;;;;5034035;28;20077;-64
2022/12/05 09:52:43;;;;;;;63.55;23.42;;;8.60;1.00;;;;;;5034311;28;20386;-64
2022/12/05 09:55:17;;;;;;;60.47;22.55;;;8.60;1.00;;;;;;5034287;28;20029;-63
2022/12/05 09:57:56;;;;;;;63.30;22.38;;;8.60;1.00;;;;;;5034042;28;20025;-64
2022/12/05 10:00:22;;;;;;;62.38;22.27;;;8.60;1.00;;;;;;5034173;28;20061;-63
2022/12/05 10:03:01;;;;;;;63.88;22.80;;;8.60;1.00;;;;;;5033946;28;20049;-63
2022/12/05 10:05:50;;;;;;;65.15;21.88;;;8.60;1.00;;;;;;5034034;28;20385;-62
2022/12/05 10:08:25;;;;;;;62.22;23.70;;;8.60;1.00;;;;;;5033296;28;20063;-62
2022/12/05 10:11:00;;;;;;;61.95;23.67;;;8.70;1.00;;;;;;5032626;28;20362;-62
2022/12/05 10:14:03;;;;;;;60.95;22.00;;;8.70;99.90;;;;;;5034304;28;20080;-62
2022/12/05 10:16:33;;;;;;;65.30;24.13;;;8.70;99.90;;;;;;5033643;28;20049;-63
2022/12/05 10:19:11;;;;;;;68.78;23.77;;;8.70;99.90;;;;;;5033761;28;20525;-64
2022/12/05 10:22:01;;;;;;;65.90;23.13;;;8.70;99.90;;;;;;5033658;28;20470;-63
2022/12/05 10:24:40;;;;;;;70.55;23.20;;;8.70;99.90;;;;;;5033661;28;20030;-63
2022/12/05 10:27:09;;;;;;;58.25;21.65;;;8.70;99.90;;;;;;5033793;28;20381;-62
2022/12/05 10:29:44;;;;;;;74.85;23.25;;;8.70;99.90;;;;;;5032698;28;20111;-63
2022/12/05 10:32:14;;;;;;;65.80;23.50;;;8.80;99.90;;;;;;5033308;28;20037;-61
2022/12/05 10:34:42;;;;;;;62.90;22.20;;;8.80;99.90;;;;;;5033478;28;20029;-63
2022/12/05 10:37:16;;;;;;;69.32;21.92;;;8.80;99.90;;;;;;5033229;28;20057;-63
2022/12/05 10:39:42;;;;;;;65.45;22.48;;;8.90;99.90;;;;;;5033354;28;20017;-63
2022/12/05 10:42:18;;;;;;;64.30;24.23;;;8.90;99.90;;;;;;5033354;28;20044;-63
2022/12/05 10:44:44;;;;;;;60.55;22.92;;;9.00;99.90;;;;;;5033166;28;20072;-62
2022/12/05 10:47:11;;;;;;;61.40;21.55;;;9.00;99.90;;;;;;5033151;28;20064;-63
2022/12/05 10:49:38;;;;;;;61.00;19.35;;;9.10;99.90;;;;;;5033102;28;20029;-63
2022/12/05 10:52:04;;;;;;;62.15;20.88;;;9.10;99.90;;;;;;5033282;28;20159;-63
2022/12/05 10:54:34;;;;;;;64.18;20.20;;;9.20;99.90;;;;;;5033444;28;20124;-63
2022/12/05 10:57:00;;;;;;;54.53;18.20;;;9.20;99.90;;;;;;5032932;28;20077;-63
2022/12/05 10:59:44;;;;;;;53.95;18.17;;;9.20;99.90;;;;;;5033030;28;20021;-63
2022/12/05 11:02:24;;;;;;;48.30;18.00;;;9.20;99.90;;;;;;5032801;28;20103;-62
2022/12/05 11:04:50;;;;;;;63.20;19.05;;;9.20;83.00;;;;;;5032806;28;20051;-62
2022/12/05 11:07:34;;;;;;;56.53;18.33;;;9.20;39.00;;;;;;5033261;28;20032;-62
2022/12/05 11:10:17;;;;;;;53.45;18.90;;;9.30;26.50;;;;;;5032964;28;20045;-64
2022/12/05 11:12:43;;;;;;;47.25;17.92;;;9.30;9.40;;;;;;5032607;28;20109;-63
2022/12/05 11:15:14;;;;;;;49.42;18.30;;;9.30;1.00;;;;;;5032421;28;20095;-63
2022/12/05 11:17:41;;;;;;;45.38;17.73;;;9.30;1.00;;;;;;5032899;28;20024;-63
2022/12/05 11:20:18;;;;;;;54.08;18.92;;;9.30;1.00;;;;;;5032587;28;20036;-63
2022/12/05 11:22:46;;;;;;;44.60;16.75;;;9.20;1.00;;;;;;5032618;28;20018;-63
2022/12/05 11:25:27;;;;;;;48.95;19.05;;;9.20;1.00;;;;;;5032498;28;20079;-63
2022/12/05 11:27:53;;;;;;;50.55;17.00;;;9.20;1.00;;;;;;5032336;28;20363;-64
2022/12/05 11:30:26;;;;;;;48.75;17.35;;;9.20;99.90;;;;;;5032328;28;20048;-64
2022/12/05 11:33:20;;;;;;;43.58;16.63;;;9.20;99.90;;;;;;5032469;28;20021;-63
2022/12/05 11:35:48;;;;;;;43.05;16.98;;;9.20;1.00;;;;;;5032160;28;20528;-63
2022/12/05 11:38:16;;;;;;;42.03;16.60;;;9.10;99.90;;;;;;5032403;28;20068;-63
2022/12/05 11:40:58;;;;;;;50.55;18.15;;;9.10;99.90;;;;;;5031914;28;20018;-63
2022/12/05 11:43:45;;;;;;;48.40;16.77;;;9.10;99.90;;;;;;5032242;28;20084;-63
2022/12/05 11:46:11;;;;;;;59.65;17.55;;;9.20;1.00;;;;;;5031842;28;20026;-63
2022/12/05 11:48:46;;;;;;;47.88;15.65;;;9.20;1.00;;;;;;5030446;28;20028;-63
2022/12/05 11:51:30;;;;;;;42.05;16.42;;;9.20;99.90;;;;;;5032061;28;20029;-63
2022/12/05 11:54:20;;;;;;;39.55;15.95;;;9.10;1.00;;;;;;5031865;28;20458;-63
2022/12/05 11:56:58;;;;;;;38.05;15.75;;;9.10;99.90;;;;;;5031791;28;20029;-62
2022/12/05 11:59:49;;;;;;;46.78;17.08;;;9.00;1.00;;;;;;5032105;28;20105;-62
2022/12/05 12:02:30;;;;;;;45.65;16.75;;;9.00;1.00;;;;;;5031468;28;20029;-63
2022/12/05 12:05:07;;;;;;;45.28;16.30;;;9.00;1.00;;;;;;5031761;28;20057;-63
2022/12/05 12:07:51;;;;;;;41.50;16.00;;;9.00;1.00;;;;;;5031800;28;20032;-63
2022/12/05 12:10:41;;;;;;;51.22;16.70;;;9.00;1.00;;;;;;5031596;28;20034;-62
2022/12/05 12:13:22;;;;;;;47.10;16.67;;;9.00;1.00;;;;;;5031484;28;20025;-62
2022/12/05 12:16:07;;;;;;;42.10;16.35;;;9.00;1.00;;;;;;5031629;28;20041;-62
2022/12/05 12:18:51;;;;;;;37.35;14.95;;;9.00;1.40;;;;;;5031315;28;20086;-62
2022/12/05 12:21:45;;;;;;;42.10;16.30;;;9.00;23.80;;;;;;5031150;28;20050;-62
2022/12/05 12:24:22;;;;;;;;;;;9.00;24.30;;;;;;5031825;28;20079;-62
2022/12/05 12:27:18;;;;;;;42.60;14.35;;;9.00;31.70;;;;;;5031571;28;19905;-64
2022/12/05 12:29:56;;;;;;;44.83;15.70;;;9.00;34.00;;;;;;5031170;28;20037;-63
2022/12/05 12:32:59;;;;;;;43.72;16.35;;;8.90;44.40;;;;;;5031277;28;20565;-64
2022/12/05 12:36:06;;;;;;;45.25;15.20;;;8.90;61.70;;;;;;5031407;28;20017;-63
2022/12/05 12:38:49;;;;;;;53.25;16.52;;;8.90;88.30;;;;;;5031100;28;20041;-64
2022/12/05 12:41:24;;;;;;;46.78;15.68;;;8.90;98.90;;;;;;5031182;28;20516;-63
2022/12/05 12:44:01;;;;;;;52.60;16.85;;;8.90;99.90;;;;;;5031063;28;20052;-63
2022/12/05 12:46:55;;;;;;;44.33;16.70;;;9.00;99.90;;;;;;5031386;28;20390;-62
2022/12/05 12:49:38;;;;;;;45.22;16.60;;;9.00;99.90;;;;;;5031307;28;20069;-63
2022/12/05 12:52:21;;;;;;;44.22;16.33;;;9.10;99.90;;;;;;5031187;28;20076;-63
2022/12/05 12:55:43;;;;;;;51.28;17.38;;;9.10;99.90;;;;;;5030727;28;20025;-62
2022/12/05 12:58:31;;;;;;;43.33;15.35;;;9.10;99.90;;;;;;5028105;28;20025;-63
2022/12/05 13:01:18;;;;;;;42.05;15.90;;;9.20;99.90;;;;;;5028235;28;20415;-62
2022/12/05 13:03:54;;;;;;;40.80;16.98;;;9.20;99.90;;;;;;5030275;28;20120;-63
2022/12/05 13:06:26;;;;;;;46.80;17.00;;;9.30;99.90;;;;;;5031000;28;20100;-64
2022/12/05 13:09:00;;;;;;;;;;;9.30;99.90;;;;;;5031073;28;20094;-63
2022/12/05 13:11:32;;;;;;;45.72;15.95;;;9.30;99.70;;;;;;5030689;28;19912;-62
2022/12/05 13:14:00;;;;;;;40.03;16.15;;;9.40;86.70;;;;;;5030976;28;20473;-63
2022/12/05 13:16:38;;;;;;;48.17;17.20;;;9.40;44.30;;;;;;5030633;28;20050;-63